createdAt,value
2023-05-01T00:02:48.761Z,95523.31
2023-05-01T00:07:51.151Z,95515.81
2023-05-01T00:12:53.715Z,95518.47
2023-05-01T00:17:56.195Z,95510.97
2023-05-01T00:22:58.813Z,95497.84
2023-05-01T00:28:01.173Z,95493.03
2023-05-01T00:33:03.705Z,95489.00
2023-05-01T00:38:06.280Z,95487.66
2023-05-01T00:43:08.997Z,95492.69
2023-05-01T00:48:11.431Z,95487.59
2023-05-01T00:53:13.770Z,95482.22
2023-05-01T00:58:16.200Z,95482.19
2023-05-01T01:03:18.558Z,95475.22
2023-05-01T01:08:21.447Z,95468.81
2023-05-01T01:13:23.747Z,95481.66
2023-05-01T01:18:26.337Z,95475.75
2023-05-01T01:23:28.925Z,95464.75
2023-05-01T01:28:31.300Z,95473.78
2023-05-01T01:33:33.770Z,95467.34
2023-05-01T01:38:36.107Z,95465.22
2023-05-01T01:43:38.464Z,95464.69
2023-05-01T01:48:41.362Z,95456.06
2023-05-01T01:53:43.749Z,95453.44
2023-05-01T01:58:46.078Z,95457.16
2023-05-01T02:03:48.505Z,95441.81
2023-05-01T02:08:51.188Z,95441.00
2023-05-01T02:13:53.513Z,95436.38
2023-05-01T02:18:56.033Z,95432.88
2023-05-01T02:23:58.949Z,95426.16
2023-05-01T02:29:01.536Z,95426.69
2023-05-01T02:34:04.220Z,95425.28
2023-05-01T02:39:07.109Z,95422.66
2023-05-01T02:44:09.496Z,95413.53
2023-05-01T02:49:11.886Z,95413.75
2023-05-01T02:54:14.265Z,95403.00
2023-05-01T02:59:16.654Z,95407.00
2023-05-01T03:04:19.345Z,95409.66
2023-05-01T03:09:22.019Z,95402.66
2023-05-01T03:14:24.428Z,95410.69
2023-05-01T03:19:27.152Z,95410.16
2023-05-01T03:24:29.866Z,95396.53
2023-05-01T03:29:34.033Z,95403.19
2023-05-01T03:34:36.922Z,95397.56
2023-05-01T03:39:39.853Z,95396.50
2023-05-01T03:44:42.432Z,95401.63
2023-05-01T03:49:44.947Z,95399.25
2023-05-01T03:54:47.309Z,95392.63
2023-05-01T03:59:49.635Z,95389.72
2023-05-01T04:04:52.013Z,95387.63
2023-05-01T04:09:54.862Z,95378.53
2023-05-01T04:14:57.846Z,95386.00
2023-05-01T04:20:01.329Z,95375.09
2023-05-01T04:25:05.087Z,95375.16
2023-05-01T04:30:07.813Z,95372.50
2023-05-01T04:35:10.726Z,95380.06
2023-05-01T04:40:13.122Z,95379.59
2023-05-01T04:45:16.426Z,95373.19
2023-05-01T04:50:18.818Z,95374.81
2023-05-01T04:55:21.194Z,95374.34
2023-05-01T05:00:23.825Z,95369.53
2023-05-01T05:05:26.193Z,95362.81
2023-05-01T05:10:28.967Z,95362.53
2023-05-01T05:15:31.918Z,95372.22
2023-05-01T05:20:34.733Z,95364.69
2023-05-01T05:25:37.528Z,95366.00
2023-05-01T05:30:40.127Z,95375.13
2023-05-01T05:35:42.448Z,95377.13
2023-05-01T05:40:45.464Z,95379.47
2023-05-01T05:45:47.870Z,95376.66
2023-05-01T05:50:52.449Z,95375.06
2023-05-01T06:01:18.348Z,95380.69
2023-05-01T06:06:20.839Z,95374.63
2023-05-01T06:11:23.371Z,95370.41
2023-05-01T06:16:25.851Z,95370.31
2023-05-01T06:21:28.279Z,95367.75
2023-05-01T06:26:30.637Z,95371.47
2023-05-01T06:31:33.413Z,95367.91
2023-05-01T06:36:36.163Z,95366.41
2023-05-01T06:41:38.722Z,95366.66
2023-05-01T06:46:41.130Z,95361.19
2023-05-01T06:51:43.516Z,95367.44
2023-05-01T06:56:45.844Z,95378.34
2023-05-01T07:01:48.189Z,95377.72
2023-05-01T07:06:50.754Z,95378.63
2023-05-01T07:11:53.104Z,95372.88
2023-05-01T07:16:55.912Z,95364.41
2023-05-01T07:21:58.318Z,95362.31
2023-05-01T07:27:01.025Z,95358.50
2023-05-01T07:32:05.816Z,95355.81
2023-05-01T07:37:08.250Z,95366.63
2023-05-01T07:42:10.587Z,95372.38
2023-05-01T07:47:12.924Z,95375.09
2023-05-01T07:52:15.460Z,95372.47
2023-05-01T07:57:17.818Z,95376.47
2023-05-01T08:02:20.331Z,95373.66
2023-05-01T08:07:22.994Z,95379.97
2023-05-01T08:12:25.392Z,95374.19
2023-05-01T08:17:27.715Z,95392.22
2023-05-01T08:22:30.118Z,95397.56
2023-05-01T08:27:32.639Z,95392.47
2023-05-01T08:32:35.613Z,95399.03
2023-05-01T08:37:38.555Z,95394.28
2023-05-01T08:42:40.906Z,95400.28
2023-05-01T08:47:43.779Z,95411.69
2023-05-01T08:52:46.197Z,95402.28
2023-05-01T08:57:48.911Z,95412.69
2023-05-01T09:02:51.650Z,95411.84
2023-05-01T09:07:54.511Z,95411.94
2023-05-01T09:12:57.757Z,95418.75
2023-05-01T09:18:03.180Z,95419.84
2023-05-01T09:23:06.777Z,95420.66
2023-05-01T09:28:09.385Z,95429.66
2023-05-01T09:33:12.332Z,95440.31
2023-05-01T09:38:15.163Z,95438.53
2023-05-01T09:43:17.939Z,95442.56
2023-05-01T09:48:20.556Z,95447.53
2023-05-01T09:53:22.934Z,95456.63
2023-05-01T09:58:26.212Z,95474.22
2023-05-01T10:03:28.666Z,95472.84
2023-05-01T10:08:31.548Z,95471.34
2023-05-01T10:13:37.115Z,95491.88
2023-05-01T10:18:39.668Z,95492.19
2023-05-01T10:23:42.089Z,95498.38
2023-05-01T10:28:44.516Z,95490.97
2023-05-01T10:33:46.829Z,95496.13
2023-05-01T10:38:49.163Z,95497.09
2023-05-01T10:43:52.508Z,95495.00
2023-05-01T10:48:56.305Z,95493.66
2023-05-01T10:53:58.877Z,95488.63
2023-05-01T10:59:04.961Z,95484.22
2023-05-01T11:04:08.671Z,95476.09
2023-05-01T11:09:11.720Z,95477.69
2023-05-01T11:14:15.171Z,95474.22
2023-05-01T11:19:17.528Z,95481.63
2023-05-01T11:24:19.859Z,95476.19
2023-05-01T11:29:22.175Z,95464.66
2023-05-01T11:34:24.883Z,95476.19
2023-05-01T11:39:27.359Z,95468.69
2023-05-01T11:44:30.797Z,95468.22
2023-05-01T11:49:33.228Z,95461.97
2023-05-01T11:54:35.604Z,95469.53
2023-05-01T11:59:38.212Z,95461.84
2023-05-01T12:04:41.669Z,95472.84
2023-05-01T12:09:44.410Z,95459.81
2023-05-01T12:14:47.133Z,95460.25
2023-05-01T12:19:52.874Z,95458.63
2023-05-01T12:24:55.214Z,95454.78
2023-05-01T12:29:57.588Z,95448.19
2023-05-01T12:35:00.834Z,95453.69
2023-05-01T12:40:06.802Z,95449.63
2023-05-01T12:45:15.087Z,95446.19
2023-05-01T12:50:17.660Z,95444.88
2023-05-01T12:55:20.035Z,95436.41
2023-05-01T13:00:22.928Z,95442.59
2023-05-01T13:05:25.455Z,95433.00
2023-05-01T13:10:27.919Z,95440.28
2023-05-01T13:15:32.867Z,95438.84
2023-05-01T13:20:38.850Z,95429.16
2023-05-01T13:25:41.298Z,95421.41
2023-05-01T13:30:43.642Z,95417.97
2023-05-01T13:35:46.305Z,95418.47
2023-05-01T13:40:49.164Z,95413.00
2023-05-01T13:45:52.054Z,95419.06
2023-05-01T13:50:54.868Z,95418.03
2023-05-01T13:55:57.741Z,95415.25
2023-05-01T14:01:00.173Z,95408.63
2023-05-01T14:06:02.615Z,95404.03
2023-05-01T14:11:05.003Z,95405.66
2023-05-01T14:16:07.452Z,95405.13
2023-05-01T14:21:09.789Z,95402.94
2023-05-01T14:26:12.284Z,95407.13
2023-05-01T14:31:15.049Z,95410.94
2023-05-01T14:36:17.777Z,95403.47
2023-05-01T14:41:21.069Z,95406.22
2023-05-01T14:46:23.429Z,95414.00
2023-05-01T14:51:25.773Z,95405.13
2023-05-01T14:56:28.246Z,95408.09
2023-05-01T15:01:31.151Z,95408.94
2023-05-01T15:06:33.846Z,95405.41
2023-05-01T15:11:36.254Z,95421.69
2023-05-01T15:16:39.027Z,95417.22
2023-05-01T15:21:41.809Z,95414.47
2023-05-01T15:26:44.361Z,95423.22
2023-05-01T15:31:48.462Z,95424.56
2023-05-01T15:36:51.920Z,95436.75
2023-05-01T15:41:54.329Z,95430.38
2023-05-01T15:46:56.747Z,95431.00
2023-05-01T15:51:59.324Z,95433.34
2023-05-01T15:57:03.259Z,95431.31
2023-05-01T16:02:08.240Z,95429.44
2023-05-01T16:07:10.972Z,95442.59
2023-05-01T16:12:13.676Z,95449.38
2023-05-01T16:17:16.420Z,95454.13
2023-05-01T16:22:18.834Z,95456.78
2023-05-01T16:27:21.212Z,95461.06
2023-05-01T16:32:25.267Z,95472.50
2023-05-01T16:43:05.473Z,95485.03
2023-05-01T16:48:08.745Z,95490.13
2023-05-01T16:53:11.136Z,95496.22
2023-05-01T16:58:18.558Z,95506.97
2023-05-01T17:03:27.179Z,95509.00
2023-05-01T17:08:30.729Z,95518.50
2023-05-01T17:13:34.085Z,95523.69
2023-05-01T17:18:37.470Z,95530.84
2023-05-01T17:23:40.453Z,95529.81
2023-05-01T17:28:45.157Z,95537.13
2023-05-01T17:33:48.577Z,95536.34
2023-05-01T17:38:52.105Z,95532.91
2023-05-01T17:43:55.532Z,95542.66
2023-05-01T17:48:58.128Z,95551.53
2023-05-01T17:54:00.720Z,95554.56
2023-05-01T17:59:03.059Z,95554.84
2023-05-01T18:04:05.562Z,95556.47
2023-05-01T18:09:08.875Z,95565.38
2023-05-01T18:14:11.892Z,95571.81
2023-05-01T18:19:14.274Z,95578.59
2023-05-01T18:24:17.099Z,95583.19
2023-05-01T18:29:19.835Z,95594.72
2023-05-01T18:34:22.280Z,95591.53
2023-05-01T18:39:24.622Z,95601.22
2023-05-01T18:44:27.009Z,95611.69
2023-05-01T18:49:29.625Z,95611.69
2023-05-01T18:54:32.744Z,95616.28
2023-05-01T18:59:35.157Z,95623.56
2023-05-01T19:04:49.287Z,95636.75
2023-05-01T19:09:59.424Z,95637.34
2023-05-01T19:15:05.525Z,95642.72
2023-05-01T19:20:08.394Z,95644.88
2023-05-01T19:25:11.124Z,95643.81
2023-05-01T19:30:13.482Z,95646.50
2023-05-01T19:35:16.526Z,95643.81
2023-05-01T19:40:19.272Z,95642.72
2023-05-01T19:45:21.655Z,95641.13
2023-05-01T19:50:23.995Z,95646.25
2023-05-01T19:55:26.385Z,95654.06
2023-05-01T20:00:29.133Z,95656.50
2023-05-01T20:05:32.427Z,95656.22
2023-05-01T20:10:34.782Z,95662.41
2023-05-01T20:15:38.011Z,95675.88
2023-05-01T20:20:40.665Z,95678.28
2023-05-01T20:25:43.193Z,95678.56
2023-05-01T20:30:45.591Z,95684.75
2023-05-01T20:35:48.011Z,95693.31
2023-05-01T20:40:50.832Z,95693.84
2023-05-01T20:45:53.194Z,95698.97
2023-05-01T20:50:55.632Z,95689.84
2023-05-01T20:55:57.958Z,95704.06
2023-05-01T21:01:00.301Z,95698.41
2023-05-01T21:06:02.923Z,95709.41
2023-05-01T21:11:05.647Z,95706.75
2023-05-01T21:16:08.057Z,95705.13
2023-05-01T21:21:11.101Z,95723.38
2023-05-01T21:26:13.443Z,95722.00
2023-05-01T21:31:15.759Z,95723.38
2023-05-01T21:36:18.071Z,95716.13
2023-05-01T21:41:20.857Z,95720.94
2023-05-01T21:46:23.199Z,95719.63
2023-05-01T21:51:25.797Z,95721.75
2023-05-01T21:56:28.260Z,95724.69
2023-05-01T22:01:30.675Z,95734.09
2023-05-01T22:06:33.204Z,95729.81
2023-05-01T22:11:35.880Z,95735.19
2023-05-01T22:16:38.630Z,95737.31
2023-05-01T22:21:41.391Z,95743.47
2023-05-01T22:26:44.304Z,95737.28
2023-05-01T22:31:47.010Z,95741.31
2023-05-01T22:36:49.713Z,95746.41
2023-05-01T22:41:52.478Z,95746.13
2023-05-01T22:46:55.209Z,95755.22
2023-05-01T22:51:58.252Z,95752.28
2023-05-01T22:57:00.586Z,95753.09
2023-05-01T23:02:03.198Z,95755.78
2023-05-01T23:07:05.582Z,95756.56
2023-05-01T23:12:07.928Z,95760.31
2023-05-01T23:17:10.266Z,95755.78
2023-05-01T23:22:13.165Z,95758.75
2023-05-01T23:27:15.566Z,95751.78
2023-05-01T23:32:17.978Z,95747.47
2023-05-01T23:37:20.371Z,95750.97
2023-05-01T23:42:22.709Z,95752.88
2023-05-01T23:47:25.174Z,95748.03
2023-05-01T23:52:27.636Z,95762.00
2023-05-01T23:57:29.983Z,95756.09
